createdAt,value
2018-03-20T00:00:38.392Z,41.70
2018-03-20T00:03:06.002Z,41.70
2018-03-20T00:05:33.579Z,41.30
2018-03-20T00:08:01.158Z,41.40
2018-03-20T00:10:28.700Z,41.60
2018-03-20T00:12:56.294Z,41.50
2018-03-20T00:15:23.880Z,41.50
2018-03-20T00:17:51.447Z,41.60
2018-03-20T00:20:19.052Z,41.80
2018-03-20T00:22:46.619Z,41.80
2018-03-20T00:25:14.196Z,42.00
2018-03-20T00:27:41.843Z,42.10
2018-03-20T00:30:09.463Z,42.20
2018-03-20T00:32:37.051Z,41.90
2018-03-20T00:35:04.613Z,42.00
2018-03-20T00:37:32.173Z,41.80
2018-03-20T00:39:59.694Z,42.10
2018-03-20T00:42:27.266Z,42.00
2018-03-20T00:44:54.819Z,42.20
2018-03-20T00:47:22.362Z,42.20
2018-03-20T00:49:50.676Z,42.20
2018-03-20T00:52:18.235Z,42.20
2018-03-20T00:54:45.772Z,42.40
2018-03-20T00:57:13.360Z,42.50
2018-03-20T00:59:40.911Z,42.40
2018-03-20T01:02:08.436Z,42.60
2018-03-20T01:04:36.001Z,42.90
2018-03-20T01:07:03.588Z,43.00
2018-03-20T01:09:31.152Z,43.20
2018-03-20T01:11:58.734Z,42.90
2018-03-20T01:14:26.271Z,42.70
2018-03-20T01:16:53.894Z,42.50
2018-03-20T01:19:21.457Z,42.50
2018-03-20T01:21:49.793Z,42.80
2018-03-20T01:24:17.364Z,42.70
2018-03-20T01:26:44.932Z,42.70
2018-03-20T01:29:12.513Z,43.00
2018-03-20T01:31:40.827Z,43.00
2018-03-20T01:34:08.393Z,43.00
2018-03-20T01:36:35.924Z,43.00
2018-03-20T01:39:03.557Z,43.00
2018-03-20T01:41:31.118Z,42.80
2018-03-20T01:43:58.675Z,42.90
2018-03-20T01:46:26.233Z,43.10
2018-03-20T01:48:53.805Z,43.10
2018-03-20T01:51:22.118Z,43.10
2018-03-20T01:53:49.691Z,43.10
2018-03-20T01:56:17.250Z,43.30
2018-03-20T01:58:44.856Z,43.30
2018-03-20T02:01:12.431Z,43.30
2018-03-20T02:03:39.980Z,43.40
2018-03-20T02:06:08.282Z,43.90
2018-03-20T02:08:36.082Z,43.30
2018-03-20T02:11:03.656Z,43.30
2018-03-20T02:13:31.285Z,43.50
2018-03-20T02:15:58.799Z,43.50
2018-03-20T02:18:27.159Z,43.50
2018-03-20T02:20:54.731Z,43.50
2018-03-20T02:23:22.300Z,43.90
2018-03-20T02:25:49.856Z,44.60
2018-03-20T02:28:17.393Z,43.90
2018-03-20T02:30:44.977Z,43.40
2018-03-20T02:33:12.539Z,44.20
2018-03-20T02:35:40.880Z,43.90
2018-03-20T02:38:08.423Z,43.90
2018-03-20T02:40:35.986Z,43.80
2018-03-20T02:43:03.588Z,43.80
2018-03-20T02:45:31.925Z,43.70
2018-03-20T02:47:59.514Z,43.70
2018-03-20T02:50:27.087Z,43.70
2018-03-20T02:52:54.676Z,43.60
2018-03-20T02:55:22.273Z,43.50
2018-03-20T02:57:50.137Z,43.70
2018-03-20T03:00:17.899Z,43.70
2018-03-20T03:02:45.464Z,43.60
2018-03-20T03:05:13.044Z,44.10
2018-03-20T03:07:40.588Z,44.00
2018-03-20T03:10:08.156Z,43.60
2018-03-20T03:12:35.694Z,43.70
2018-03-20T03:15:03.273Z,43.80
2018-03-20T03:17:31.175Z,43.60
2018-03-20T03:19:58.893Z,44.00
2018-03-20T03:22:26.492Z,43.90
2018-03-20T03:24:54.030Z,43.90
2018-03-20T03:27:21.564Z,43.80
2018-03-20T03:29:49.149Z,44.00
2018-03-20T03:32:16.709Z,43.90
2018-03-20T03:34:44.268Z,43.70
2018-03-20T03:37:11.834Z,43.70
2018-03-20T03:39:40.165Z,43.70
2018-03-20T03:42:07.733Z,43.60
2018-03-20T03:44:35.320Z,43.90
2018-03-20T03:47:02.914Z,44.10
2018-03-20T03:49:30.450Z,44.70
2018-03-20T03:51:58.186Z,44.10
2018-03-20T03:54:25.758Z,43.90
2018-03-20T03:56:53.305Z,44.10
2018-03-20T03:59:20.874Z,44.40
2018-03-20T04:01:48.487Z,44.80
2018-03-20T04:04:16.158Z,44.70
2018-03-20T04:06:44.511Z,44.40
2018-03-20T04:09:12.844Z,44.40
2018-03-20T04:11:40.437Z,44.40
2018-03-20T04:14:07.977Z,44.30
2018-03-20T04:16:35.552Z,44.10
2018-03-20T04:19:03.158Z,44.30
2018-03-20T04:21:30.721Z,44.60
2018-03-20T04:23:58.277Z,44.30
2018-03-20T04:26:26.700Z,44.40
2018-03-20T04:28:54.265Z,44.40
2018-03-20T04:31:21.874Z,44.30
2018-03-20T04:33:50.201Z,44.30
2018-03-20T04:36:17.842Z,44.20
2018-03-20T04:38:45.436Z,44.50
2018-03-20T04:41:13.016Z,44.50
2018-03-20T04:43:40.537Z,44.50
2018-03-20T04:46:08.161Z,44.60
2018-03-20T04:48:35.705Z,44.70
2018-03-20T04:51:03.326Z,44.50
2018-03-20T04:53:30.883Z,44.70
2018-03-20T04:55:58.497Z,44.50
2018-03-20T04:58:26.065Z,44.80
2018-03-20T05:00:53.635Z,45.00
2018-03-20T05:03:21.214Z,44.70
2018-03-20T05:05:48.874Z,44.60
2018-03-20T05:08:16.413Z,44.50
2018-03-20T05:10:44.015Z,44.60
2018-03-20T05:13:11.586Z,44.90
2018-03-20T05:15:39.179Z,44.80
2018-03-20T05:18:07.548Z,44.90
2018-03-20T05:24:00.832Z,44.70
2018-03-20T05:26:29.172Z,44.90
2018-03-20T05:28:56.778Z,44.80
2018-03-20T05:31:24.335Z,44.70
2018-03-20T05:33:52.301Z,44.70
2018-03-20T05:36:19.885Z,44.90
2018-03-20T05:38:47.473Z,44.70
2018-03-20T05:41:15.078Z,44.70
2018-03-20T05:43:42.636Z,44.90
2018-03-20T05:46:11.090Z,45.20
2018-03-20T05:48:44.329Z,45.20
2018-03-20T05:51:19.374Z,45.40
2018-03-20T05:53:46.949Z,45.40
2018-03-20T05:56:14.495Z,45.60
2018-03-20T05:58:42.054Z,45.80
2018-03-20T06:01:09.592Z,45.60
2018-03-20T06:03:37.249Z,45.70
2018-03-20T06:06:04.830Z,45.70
2018-03-20T06:08:32.489Z,46.00
2018-03-20T06:11:00.051Z,46.00
2018-03-20T06:13:27.689Z,46.10
2018-03-20T06:15:55.281Z,46.20
2018-03-20T06:18:22.861Z,46.10
2018-03-20T06:20:50.464Z,46.10
2018-03-20T06:23:18.783Z,46.50
2018-03-20T06:25:46.306Z,46.50
2018-03-20T06:28:14.697Z,46.50
2018-03-20T06:30:43.025Z,46.50
2018-03-20T06:33:11.424Z,46.40
2018-03-20T06:35:38.996Z,46.40
2018-03-20T06:38:06.574Z,46.80
2018-03-20T06:40:34.731Z,46.40
2018-03-20T06:43:03.094Z,46.30
2018-03-20T06:45:30.670Z,46.30
2018-03-20T06:47:58.333Z,46.10
2018-03-20T06:50:25.914Z,46.10
2018-03-20T06:52:53.559Z,46.80
2018-03-20T06:55:21.086Z,46.00
2018-03-20T06:57:48.746Z,45.80
2018-03-20T07:00:16.332Z,45.60
2018-03-20T07:02:44.066Z,45.50
2018-03-20T07:05:11.609Z,45.30
2018-03-20T07:07:39.192Z,45.30
2018-03-20T07:10:06.736Z,45.20
2018-03-20T07:12:34.320Z,45.20
2018-03-20T07:15:01.880Z,45.20
2018-03-20T07:17:29.466Z,44.90
2018-03-20T07:19:57.005Z,44.90
2018-03-20T07:22:24.935Z,44.70
2018-03-20T07:24:52.500Z,44.50
2018-03-20T07:27:20.103Z,44.30
2018-03-20T07:29:47.948Z,44.10
2018-03-20T07:32:16.521Z,43.60
2018-03-20T07:34:44.940Z,43.60
2018-03-20T07:37:13.323Z,42.60
2018-03-20T07:39:41.697Z,42.70
2018-03-20T07:42:09.881Z,42.70
2018-03-20T07:44:37.576Z,42.70
2018-03-20T07:47:05.176Z,42.40
2018-03-20T07:49:33.641Z,42.00
2018-03-20T07:52:02.618Z,42.00
2018-03-20T07:54:30.283Z,41.80
2018-03-20T07:56:57.889Z,42.00
2018-03-20T07:59:25.467Z,41.60
2018-03-20T08:01:53.118Z,41.30
2018-03-20T08:04:21.494Z,40.70
2018-03-20T08:06:49.818Z,40.50
2018-03-20T08:09:17.493Z,40.50
2018-03-20T08:11:45.045Z,40.50
2018-03-20T08:14:12.637Z,40.50
2018-03-20T08:16:40.209Z,40.50
2018-03-20T08:19:07.945Z,40.20
2018-03-20T08:21:35.592Z,40.00
2018-03-20T08:24:03.372Z,40.40
2018-03-20T08:26:31.124Z,40.30
2018-03-20T08:28:58.682Z,40.20
2018-03-20T08:31:26.298Z,39.60
2018-03-20T08:33:53.885Z,39.50
2018-03-20T08:36:21.460Z,39.60
2018-03-20T08:38:49.018Z,39.40
2018-03-20T08:41:16.536Z,39.40
2018-03-20T08:43:45.025Z,38.60
2018-03-20T08:46:12.660Z,38.50
2018-03-20T08:48:40.197Z,38.40
2018-03-20T08:51:07.783Z,37.10
2018-03-20T08:53:35.570Z,37.70
2018-03-20T08:56:03.928Z,38.00
2018-03-20T08:58:31.750Z,37.90
2018-03-20T09:00:59.353Z,37.50
2018-03-20T09:03:26.978Z,37.70
2018-03-20T09:05:54.623Z,38.30
2018-03-20T09:08:22.221Z,37.80
2018-03-20T09:10:49.773Z,37.40
2018-03-20T09:13:17.376Z,37.00
2018-03-20T09:15:45.721Z,36.70
2018-03-20T09:18:13.409Z,36.70
2018-03-20T09:20:41.019Z,37.00
2018-03-20T09:23:08.698Z,37.00
2018-03-20T09:25:36.277Z,37.50
2018-03-20T09:28:03.917Z,36.90
2018-03-20T09:30:31.559Z,37.00
2018-03-20T09:32:59.189Z,37.20
2018-03-20T09:35:28.130Z,36.00
2018-03-20T09:37:55.709Z,35.80
2018-03-20T09:40:23.341Z,35.40
2018-03-20T09:42:50.915Z,35.60
2018-03-20T09:45:18.533Z,35.40
2018-03-20T09:47:46.248Z,35.20
2018-03-20T09:50:14.621Z,35.30
2018-03-20T09:52:42.242Z,35.70
2018-03-20T09:55:09.837Z,35.80
2018-03-20T09:57:37.416Z,35.80
2018-03-20T10:00:06.483Z,34.60
2018-03-20T10:02:34.788Z,34.60
2018-03-20T10:05:02.462Z,34.60
2018-03-20T10:07:30.097Z,34.80
2018-03-20T10:09:57.685Z,35.20
2018-03-20T10:12:25.586Z,35.00
2018-03-20T10:14:53.193Z,35.50
2018-03-20T10:17:20.864Z,36.00
2018-03-20T10:19:48.458Z,35.90
2018-03-20T10:22:16.154Z,36.40
2018-03-20T10:24:43.747Z,35.70
2018-03-20T10:27:11.382Z,34.60
2018-03-20T10:29:39.760Z,34.00
2018-03-20T10:32:07.368Z,33.90
2018-03-20T10:34:34.987Z,33.10
2018-03-20T10:37:02.543Z,32.70
2018-03-20T10:39:30.951Z,32.80
2018-03-20T10:41:58.612Z,32.80
2018-03-20T10:44:26.990Z,32.70
2018-03-20T10:46:54.589Z,32.70
2018-03-20T10:49:22.233Z,32.30
2018-03-20T10:51:49.825Z,33.50
2018-03-20T10:54:18.572Z,31.30
2018-03-20T10:56:46.170Z,31.20
2018-03-20T10:59:13.876Z,30.60
2018-03-20T11:01:46.982Z,30.80
2018-03-20T11:04:14.584Z,30.80
2018-03-20T11:06:42.167Z,30.60
2018-03-20T11:09:09.754Z,30.60
2018-03-20T11:11:37.323Z,30.80
2018-03-20T11:14:04.956Z,30.50
2018-03-20T11:16:33.098Z,30.50
2018-03-20T11:19:00.726Z,30.10
2018-03-20T11:21:29.109Z,29.80
2018-03-20T11:23:57.464Z,29.60
2018-03-20T11:26:25.028Z,29.50
2018-03-20T11:28:52.653Z,29.30
2018-03-20T11:31:20.230Z,29.40
2018-03-20T11:33:47.805Z,29.10
2018-03-20T11:36:15.405Z,28.90
2018-03-20T11:38:42.985Z,29.60
2018-03-20T11:41:10.576Z,28.70
2018-03-20T11:43:38.177Z,28.60
2018-03-20T11:46:05.896Z,28.30
2018-03-20T11:48:33.514Z,28.60
2018-03-20T11:51:01.424Z,28.30
2018-03-20T11:53:29.003Z,27.80
2018-03-20T11:55:56.662Z,27.30
2018-03-20T11:58:24.295Z,27.30
2018-03-20T12:00:51.964Z,27.10
2018-03-20T12:03:19.729Z,27.80
2018-03-20T12:05:47.481Z,27.50
2018-03-20T12:08:26.893Z,28.00
2018-03-20T12:10:54.485Z,28.80
2018-03-20T12:13:22.068Z,28.20
2018-03-20T12:15:49.671Z,28.40
2018-03-20T12:18:17.373Z,28.70
2018-03-20T12:20:44.949Z,29.20
2018-03-20T12:23:12.508Z,29.20
2018-03-20T12:25:40.229Z,29.20
2018-03-20T12:28:07.839Z,29.90
2018-03-20T12:30:36.257Z,30.00
2018-03-20T12:33:04.114Z,30.00
2018-03-20T12:35:32.508Z,30.60
2018-03-20T12:38:00.119Z,30.50
2018-03-20T12:40:27.693Z,30.60
2018-03-20T12:42:55.242Z,31.30
2018-03-20T12:45:22.804Z,31.00
2018-03-20T12:47:50.464Z,31.20
2018-03-20T12:50:18.002Z,30.60
2018-03-20T12:52:45.585Z,30.60
2018-03-20T12:55:14.169Z,31.60
2018-03-20T12:57:41.814Z,33.60
2018-03-20T13:00:09.368Z,35.20
2018-03-20T13:02:37.057Z,36.30
2018-03-20T13:05:04.726Z,36.60
2018-03-20T13:07:32.359Z,35.70
2018-03-20T13:09:59.962Z,35.80
2018-03-20T13:12:28.337Z,35.90
2018-03-20T13:14:57.513Z,35.90
2018-03-20T13:17:25.211Z,35.60
2018-03-20T13:19:52.842Z,35.20
2018-03-20T13:22:21.576Z,35.40
2018-03-20T13:24:49.174Z,35.30
2018-03-20T13:27:16.882Z,36.20
2018-03-20T13:29:44.445Z,37.00
2018-03-20T13:32:12.121Z,37.00
2018-03-20T13:34:39.726Z,37.00
2018-03-20T13:37:07.333Z,37.40
2018-03-20T13:39:35.821Z,39.40
2018-03-20T13:42:03.663Z,40.40
2018-03-20T13:44:31.280Z,41.60
2018-03-20T13:46:58.958Z,41.70
2018-03-20T13:49:26.530Z,41.20
2018-03-20T13:51:54.251Z,41.50
2018-03-20T13:54:22.268Z,41.80
2018-03-20T13:56:49.826Z,41.20
2018-03-20T13:59:17.493Z,41.10
2018-03-20T14:01:45.071Z,41.10
2018-03-20T14:04:12.633Z,41.20
2018-03-20T14:06:40.979Z,41.60
2018-03-20T14:09:08.910Z,41.60
2018-03-20T14:11:36.534Z,41.20
2018-03-20T14:14:04.896Z,41.60
2018-03-20T14:16:32.447Z,41.60
2018-03-20T14:19:00.034Z,42.30
2018-03-20T14:21:27.641Z,43.70
2018-03-20T14:23:55.299Z,44.80
2018-03-20T14:26:23.952Z,45.90
2018-03-20T14:28:51.521Z,46.50
2018-03-20T14:31:19.175Z,46.80
2018-03-20T14:33:46.816Z,45.40
2018-03-20T14:36:14.386Z,46.10
2018-03-20T14:38:41.970Z,46.40
2018-03-20T14:41:09.523Z,46.90
2018-03-20T14:43:37.160Z,46.80
2018-03-20T14:46:04.693Z,46.60
2018-03-20T14:48:32.274Z,46.40
2018-03-20T14:50:59.919Z,46.40
2018-03-20T14:53:33.200Z,46.60
2018-03-20T14:56:00.791Z,46.80
2018-03-20T14:58:28.485Z,46.50
2018-03-20T15:00:56.078Z,46.40
2018-03-20T15:03:23.665Z,45.80
2018-03-20T15:05:51.319Z,46.00
2018-03-20T15:08:18.963Z,46.00
2018-03-20T15:10:46.566Z,46.50
2018-03-20T15:13:14.955Z,46.90
2018-03-20T15:15:43.302Z,47.10
2018-03-20T15:18:10.917Z,47.10
2018-03-20T15:20:38.468Z,47.00
2018-03-20T15:23:06.212Z,46.80
2018-03-20T15:25:34.027Z,46.80
2018-03-20T15:28:01.902Z,46.90
2018-03-20T15:30:29.564Z,47.60
2018-03-20T15:32:57.146Z,47.20
2018-03-20T15:35:24.724Z,47.30
2018-03-20T15:37:52.367Z,47.40
2018-03-20T15:40:19.985Z,47.50
2018-03-20T15:42:47.588Z,47.80
2018-03-20T15:45:15.176Z,47.60
2018-03-20T15:47:42.782Z,47.40
2018-03-20T15:50:10.347Z,47.80
2018-03-20T15:52:38.003Z,47.60
2018-03-20T15:55:05.591Z,47.80
2018-03-20T15:57:33.493Z,47.40
2018-03-20T16:00:01.983Z,47.00
2018-03-20T16:02:29.683Z,46.90
2018-03-20T16:04:57.410Z,46.90
2018-03-20T16:07:25.799Z,46.70
2018-03-20T16:09:53.351Z,46.70
2018-03-20T16:12:21.063Z,46.60
2018-03-20T16:14:48.737Z,46.70
2018-03-20T16:17:16.426Z,46.40
2018-03-20T16:19:44.118Z,46.30
2018-03-20T16:22:11.710Z,46.10
2018-03-20T16:24:39.634Z,45.90
2018-03-20T16:27:07.245Z,46.20
2018-03-20T16:29:36.025Z,46.30
2018-03-20T16:32:03.636Z,46.30
2018-03-20T16:34:31.345Z,46.00
2018-03-20T16:36:58.997Z,45.90
2018-03-20T16:39:26.644Z,45.80
2018-03-20T16:41:54.242Z,46.00
2018-03-20T16:44:21.845Z,46.00
2018-03-20T16:46:49.477Z,46.30
2018-03-20T16:49:17.064Z,46.20
2018-03-20T16:51:44.603Z,46.10
2018-03-20T16:54:12.188Z,46.10
2018-03-20T16:56:40.578Z,46.20
2018-03-20T16:59:08.155Z,46.20
2018-03-20T17:01:35.769Z,46.10
2018-03-20T17:04:03.517Z,46.20
2018-03-20T17:06:31.117Z,46.10
2018-03-20T17:08:58.831Z,46.00
2018-03-20T17:11:26.407Z,46.10
2018-03-20T17:13:53.975Z,46.50
2018-03-20T17:16:21.540Z,47.00
2018-03-20T17:18:49.156Z,46.90
2018-03-20T17:21:16.706Z,46.90
2018-03-20T17:23:44.309Z,46.80
2018-03-20T17:26:11.937Z,46.80
2018-03-20T17:28:39.499Z,46.90
2018-03-20T17:31:07.165Z,47.70
2018-03-20T17:33:34.731Z,47.40
2018-03-20T17:36:02.470Z,47.60
2018-03-20T17:38:30.031Z,47.60
2018-03-20T17:40:57.650Z,47.90
2018-03-20T17:43:25.230Z,48.30
2018-03-20T17:45:53.598Z,48.80
2018-03-20T17:48:21.946Z,48.90
2018-03-20T17:50:50.296Z,49.50
2018-03-20T17:53:17.892Z,49.40
2018-03-20T17:55:46.058Z,49.40
2018-03-20T17:58:13.619Z,49.80
2018-03-20T18:00:41.205Z,49.50
2018-03-20T18:03:08.825Z,49.30
2018-03-20T18:05:36.369Z,49.20
2018-03-20T18:08:03.930Z,49.50
2018-03-20T18:10:31.474Z,49.60
2018-03-20T18:12:59.140Z,49.50
2018-03-20T18:15:26.748Z,49.70
2018-03-20T18:17:54.333Z,49.80
2018-03-20T18:20:21.892Z,50.10
2018-03-20T18:22:49.477Z,50.20
2018-03-20T18:25:17.065Z,50.20
2018-03-20T18:27:44.752Z,50.40
2018-03-20T18:30:12.430Z,50.60
2018-03-20T18:32:40.804Z,50.80
2018-03-20T18:35:09.135Z,50.70
2018-03-20T18:37:36.742Z,50.60
2018-03-20T18:40:04.339Z,50.50
2018-03-20T18:42:31.976Z,50.30
2018-03-20T18:45:00.456Z,50.60
2018-03-20T18:47:28.077Z,50.30
2018-03-20T18:49:55.668Z,50.40
2018-03-20T18:52:23.257Z,50.90
2018-03-20T18:54:50.829Z,51.10
2018-03-20T18:57:18.388Z,51.00
2018-03-20T18:59:45.965Z,50.70
2018-03-20T19:02:13.529Z,50.70
2018-03-20T19:04:41.104Z,50.90
2018-03-20T19:07:08.657Z,50.70
2018-03-20T19:09:36.264Z,50.80
2018-03-20T19:12:03.820Z,50.60
2018-03-20T19:14:32.230Z,50.90
2018-03-20T19:16:59.820Z,50.80
2018-03-20T19:19:27.424Z,51.20
2018-03-20T19:21:55.743Z,51.60
2018-03-20T19:24:23.313Z,51.60
2018-03-20T19:26:50.859Z,51.50
2018-03-20T19:29:18.475Z,51.30
2018-03-20T19:31:46.784Z,51.40
2018-03-20T19:34:14.345Z,51.20
2018-03-20T19:36:41.893Z,51.40
2018-03-20T19:39:09.464Z,51.30
2018-03-20T19:41:37.039Z,51.30
2018-03-20T19:44:04.699Z,51.80
2018-03-20T19:46:32.361Z,52.10
2018-03-20T19:48:59.920Z,52.20
2018-03-20T19:51:27.593Z,52.40
2018-03-20T19:53:55.208Z,52.40
2018-03-20T19:56:22.761Z,52.50
2018-03-20T19:58:50.322Z,52.80
2018-03-20T20:01:17.993Z,53.20
2018-03-20T20:03:45.642Z,53.50
2018-03-20T20:06:14.044Z,53.50
2018-03-20T20:08:42.459Z,53.30
2018-03-20T20:11:10.128Z,53.30
2018-03-20T20:13:37.692Z,53.70
2018-03-20T20:16:05.866Z,53.60
2018-03-20T20:18:33.538Z,53.10
2018-03-20T20:21:01.093Z,53.50
2018-03-20T20:23:28.736Z,53.20
2018-03-20T20:25:56.313Z,53.70
2018-03-20T20:28:23.869Z,54.00
2018-03-20T20:30:51.720Z,54.30
2018-03-20T20:33:19.301Z,55.00
2018-03-20T20:35:46.843Z,54.80
2018-03-20T20:38:14.420Z,54.50
2018-03-20T20:40:42.056Z,54.40
2018-03-20T20:43:09.800Z,54.80
2018-03-20T20:45:37.397Z,54.90
2018-03-20T20:48:05.005Z,54.70
2018-03-20T20:50:32.602Z,55.00
2018-03-20T20:53:00.181Z,55.10
2018-03-20T20:55:27.742Z,55.20
2018-03-20T20:57:55.299Z,55.20
2018-03-20T21:00:22.877Z,55.40
2018-03-20T21:02:50.492Z,55.80
2018-03-20T21:05:18.079Z,55.80
2018-03-20T21:07:45.675Z,56.30
2018-03-20T21:10:14.025Z,56.20
2018-03-20T21:12:41.607Z,56.20
2018-03-20T21:15:09.150Z,56.10
2018-03-20T21:17:36.704Z,56.30
2018-03-20T21:20:04.299Z,56.10
2018-03-20T21:22:31.932Z,56.40
2018-03-20T21:24:59.605Z,56.60
2018-03-20T21:27:27.197Z,56.20
2018-03-20T21:29:54.777Z,56.00
2018-03-20T21:32:22.329Z,55.70
2018-03-20T21:34:49.934Z,56.10
2018-03-20T21:37:17.475Z,56.10
2018-03-20T21:39:45.056Z,56.20
2018-03-20T21:42:12.614Z,55.70
2018-03-20T21:44:40.225Z,56.10
2018-03-20T21:47:07.818Z,56.70
2018-03-20T21:49:35.393Z,56.30
2018-03-20T21:52:02.936Z,55.80
2018-03-20T21:54:30.573Z,56.20
2018-03-20T21:56:58.238Z,55.60
2018-03-20T21:59:25.822Z,56.00
2018-03-20T22:01:53.384Z,56.00
2018-03-20T22:04:21.003Z,55.30
2018-03-20T22:06:48.591Z,55.90
2018-03-20T22:09:16.902Z,55.70
2018-03-20T22:11:44.493Z,55.70
2018-03-20T22:14:12.810Z,55.70
2018-03-20T22:16:40.373Z,55.60
2018-03-20T22:19:07.927Z,55.20
2018-03-20T22:21:35.525Z,54.80
2018-03-20T22:24:03.086Z,55.30
2018-03-20T22:26:30.708Z,55.30
2018-03-20T22:28:58.244Z,55.60
2018-03-20T22:31:25.824Z,55.50
2018-03-20T22:33:53.407Z,55.50
2018-03-20T22:36:20.993Z,54.90
2018-03-20T22:38:48.550Z,54.90
2018-03-20T22:41:16.181Z,54.70
2018-03-20T22:43:43.754Z,54.40
2018-03-20T22:46:11.314Z,54.50
2018-03-20T22:48:38.870Z,54.20
2018-03-20T22:51:06.413Z,54.20
2018-03-20T22:53:33.983Z,54.10
2018-03-20T22:56:01.576Z,54.50
2018-03-20T22:58:29.208Z,54.40
2018-03-20T23:00:56.769Z,53.80
2018-03-20T23:03:24.339Z,53.20
2018-03-20T23:05:51.925Z,53.70
2018-03-20T23:08:19.521Z,53.60
2018-03-20T23:10:47.113Z,53.80
2018-03-20T23:13:14.652Z,54.30
2018-03-20T23:15:42.195Z,53.00
2018-03-20T23:18:09.754Z,52.60
2018-03-20T23:20:37.284Z,53.00
2018-03-20T23:23:05.669Z,53.40
2018-03-20T23:25:33.972Z,53.00
2018-03-20T23:28:01.668Z,53.00
2018-03-20T23:30:29.227Z,53.00
2018-03-20T23:32:56.791Z,52.90
2018-03-20T23:35:24.330Z,53.00
2018-03-20T23:37:51.886Z,52.70
2018-03-20T23:40:19.425Z,52.50
2018-03-20T23:42:47.029Z,52.10
2018-03-20T23:45:14.565Z,52.10
2018-03-20T23:47:42.141Z,51.90
2018-03-20T23:50:09.674Z,51.90
2018-03-20T23:52:37.202Z,51.50
2018-03-20T23:55:04.792Z,51.00
2018-03-20T23:57:32.360Z,51.50
2018-03-20T23:59:59.890Z,51.30
